createdAt,value
2022-10-15T00:02:54.057Z,63.11
2022-10-15T00:07:57.515Z,62.52
2022-10-15T00:18:05.882Z,62.12
2022-10-15T00:23:08.957Z,62.11
2022-10-15T00:28:12.280Z,62.42
2022-10-15T00:33:17.006Z,62.22
2022-10-15T00:38:20.289Z,61.45
2022-10-15T00:43:41.627Z,63.09
2022-10-15T00:48:49.884Z,62.35
2022-10-15T00:53:53.917Z,61.92
2022-10-15T00:58:58.458Z,62.44
2022-10-15T01:04:05.747Z,61.88
2022-10-15T01:09:09.402Z,61.83
2022-10-15T01:14:27.378Z,62.56
2022-10-15T01:20:02.967Z,62.44
2022-10-15T01:25:24.521Z,62.01
2022-10-15T01:30:36.960Z,62.12
2022-10-15T01:35:48.006Z,62.03
2022-10-15T01:40:56.706Z,62.51
2022-10-15T01:46:07.014Z,62.10
2022-10-15T01:51:13.527Z,61.34
2022-10-15T01:56:21.426Z,61.02
2022-10-15T02:01:26.484Z,62.16
2022-10-15T02:06:36.241Z,62.29
2022-10-15T02:11:47.103Z,62.26
2022-10-15T02:16:59.565Z,62.73
2022-10-15T02:22:07.911Z,62.42
2022-10-15T02:27:14.409Z,61.80
2022-10-15T02:32:21.969Z,62.29
2022-10-15T02:37:28.929Z,61.99
2022-10-15T02:42:32.517Z,61.64
2022-10-15T02:47:37.238Z,62.07
2022-10-15T02:52:40.582Z,62.17
2022-10-15T02:57:43.887Z,61.73
2022-10-15T03:02:48.674Z,61.35
2022-10-15T03:07:51.894Z,61.04
2022-10-15T03:12:55.229Z,61.59
2022-10-15T03:18:00.018Z,61.47
2022-10-15T03:23:03.283Z,62.27
2022-10-15T03:28:06.668Z,62.19
2022-10-15T03:33:12.144Z,62.05
2022-10-15T03:38:15.592Z,62.26
2022-10-15T03:43:18.974Z,62.15
2022-10-15T03:48:23.979Z,61.56
2022-10-15T03:53:27.389Z,62.00
2022-10-15T03:58:30.726Z,62.60
2022-10-15T04:03:35.583Z,61.87
2022-10-15T04:08:38.688Z,61.83
2022-10-15T04:13:42.060Z,61.65
2022-10-15T04:18:46.745Z,62.24
2022-10-15T04:23:50.084Z,61.30
2022-10-15T04:28:53.512Z,61.70
2022-10-15T04:33:58.366Z,61.72
2022-10-15T04:39:02.152Z,61.47
2022-10-15T04:44:05.857Z,61.85
2022-10-15T04:49:10.628Z,62.03
2022-10-15T04:54:14.068Z,61.16
2022-10-15T04:59:17.392Z,61.32
2022-10-15T05:04:22.145Z,61.77
2022-10-15T05:09:25.570Z,61.20
2022-10-15T05:14:28.890Z,61.40
2022-10-15T05:19:33.607Z,61.14
2022-10-15T05:24:37.035Z,61.88
2022-10-15T05:29:40.384Z,61.95
2022-10-15T05:34:45.064Z,61.58
2022-10-15T05:39:49.060Z,61.98
2022-10-15T05:44:52.376Z,61.78
2022-10-15T05:49:57.352Z,61.75
2022-10-15T05:55:00.458Z,60.89
2022-10-15T06:00:04.031Z,60.47
2022-10-15T06:05:09.167Z,60.34
2022-10-15T06:10:12.649Z,60.13
2022-10-15T06:15:16.964Z,60.50
2022-10-15T06:20:22.441Z,59.56
2022-10-15T06:25:25.890Z,59.57
2022-10-15T06:30:30.106Z,58.96
2022-10-15T06:35:35.857Z,58.37
2022-10-15T06:40:39.604Z,57.25
2022-10-15T06:45:43.253Z,56.95
2022-10-15T06:50:48.055Z,57.24
2022-10-15T06:55:51.387Z,57.36
2022-10-15T07:00:54.866Z,56.80
2022-10-15T07:06:03.273Z,56.29
2022-10-15T07:11:08.853Z,55.68
2022-10-15T07:16:14.103Z,55.80
2022-10-15T07:21:18.896Z,54.98
2022-10-15T07:26:21.941Z,54.71
2022-10-15T07:31:25.606Z,55.18
2022-10-15T07:36:30.535Z,54.90
2022-10-15T07:41:33.575Z,54.51
2022-10-15T07:46:36.992Z,54.41
2022-10-15T07:51:41.703Z,54.19
2022-10-15T07:56:45.041Z,53.70
2022-10-15T08:01:50.623Z,53.36
2022-10-15T08:06:55.862Z,52.35
2022-10-15T08:11:59.280Z,51.80
2022-10-15T08:17:03.436Z,51.54
2022-10-15T08:22:08.194Z,51.04
2022-10-15T08:27:11.287Z,50.16
2022-10-15T08:32:14.738Z,51.26
2022-10-15T08:37:19.625Z,51.32
2022-10-15T08:42:26.616Z,50.65
2022-10-15T08:47:35.872Z,50.66
2022-10-15T08:52:44.364Z,50.37
2022-10-15T08:57:54.473Z,50.40
2022-10-15T09:03:04.235Z,49.33
2022-10-15T09:08:21.861Z,49.12
2022-10-15T09:13:29.209Z,49.19
2022-10-15T09:18:35.145Z,49.02
2022-10-15T09:23:41.544Z,48.74
2022-10-15T09:28:53.469Z,48.00
2022-10-15T09:34:03.143Z,47.43
2022-10-15T09:39:32.065Z,46.64
2022-10-15T09:44:46.359Z,45.74
2022-10-15T09:49:49.817Z,46.01
2022-10-15T09:55:04.461Z,45.79
2022-10-15T10:00:11.861Z,46.66
2022-10-15T10:05:29.292Z,46.57
2022-10-15T10:10:35.518Z,46.64
2022-10-15T10:15:43.249Z,46.41
2022-10-15T10:20:54.958Z,44.54
2022-10-15T10:26:00.634Z,45.24
2022-10-15T10:31:07.449Z,44.65
2022-10-15T10:36:22.481Z,44.92
2022-10-15T10:41:51.057Z,43.92
2022-10-15T10:47:13.463Z,43.95
2022-10-15T10:52:26.698Z,43.26
2022-10-15T10:57:41.906Z,43.49
2022-10-15T11:02:45.297Z,43.87
2022-10-15T11:07:56.651Z,43.86
2022-10-15T11:13:13.955Z,43.66
2022-10-15T11:18:38.598Z,44.05
2022-10-15T11:23:56.652Z,43.14
2022-10-15T11:29:12.858Z,42.39
2022-10-15T11:34:31.105Z,41.81
2022-10-15T11:39:49.723Z,42.46
2022-10-15T11:45:26.180Z,42.74
2022-10-15T11:50:34.242Z,44.57
2022-10-15T11:55:42.908Z,44.04
2022-10-15T12:00:52.320Z,43.31
2022-10-15T12:06:02.047Z,44.32
2022-10-15T12:11:16.915Z,44.63
2022-10-15T12:16:26.914Z,44.94
2022-10-15T12:21:39.669Z,44.32
2022-10-15T12:26:43.227Z,44.72
2022-10-15T12:31:55.967Z,44.90
2022-10-15T12:37:04.950Z,44.81
2022-10-15T12:42:23.056Z,44.04
2022-10-15T12:47:49.261Z,45.06
2022-10-15T12:52:58.726Z,44.68
2022-10-15T12:58:08.075Z,44.71
2022-10-15T13:03:28.810Z,44.50
2022-10-15T13:08:32.790Z,44.65
2022-10-15T13:13:36.732Z,44.96
2022-10-15T13:18:44.361Z,45.74
2022-10-15T13:23:48.878Z,46.29
2022-10-15T13:28:55.211Z,46.71
2022-10-15T13:34:05.637Z,47.25
2022-10-15T13:39:24.464Z,47.45
2022-10-15T13:44:28.413Z,48.15
2022-10-15T13:49:33.527Z,48.31
2022-10-15T13:54:37.656Z,48.64
2022-10-15T13:59:46.940Z,49.34
2022-10-15T14:04:51.696Z,49.08
2022-10-15T14:09:55.660Z,49.65
2022-10-15T14:15:38.156Z,50.00
2022-10-15T14:20:47.704Z,50.39
2022-10-15T14:25:59.394Z,50.98
2022-10-15T14:31:04.218Z,51.18
2022-10-15T14:36:14.229Z,51.94
2022-10-15T14:41:26.618Z,52.85
2022-10-15T14:46:41.048Z,53.17
2022-10-15T14:51:47.111Z,52.80
2022-10-15T14:56:52.798Z,53.30
2022-10-15T15:02:02.581Z,53.29
2022-10-15T15:07:21.508Z,54.31
2022-10-15T15:12:27.987Z,53.98
2022-10-15T15:17:32.779Z,54.69
2022-10-15T15:22:38.470Z,55.25
2022-10-15T15:27:42.711Z,55.44
2022-10-15T15:32:46.173Z,55.31
2022-10-15T15:37:51.567Z,56.30
2022-10-15T15:42:56.639Z,55.75
2022-10-15T15:48:04.218Z,56.56
2022-10-15T15:53:10.078Z,56.21
2022-10-15T15:58:14.099Z,56.33
2022-10-15T16:03:17.522Z,56.45
2022-10-15T16:08:22.998Z,56.93
2022-10-15T16:13:26.438Z,56.98
2022-10-15T16:18:30.733Z,56.62
2022-10-15T16:23:35.526Z,57.04
2022-10-15T16:28:39.592Z,56.83
2022-10-15T16:33:43.170Z,57.16
2022-10-15T16:38:49.622Z,57.96
2022-10-15T16:43:52.938Z,57.69
2022-10-15T16:48:58.642Z,57.90
2022-10-15T16:54:03.526Z,57.55
2022-10-15T16:59:07.342Z,57.66
2022-10-15T17:04:10.939Z,58.13
2022-10-15T17:09:16.811Z,58.17
2022-10-15T17:14:20.750Z,57.86
2022-10-15T17:19:30.404Z,57.80
2022-10-15T17:24:38.200Z,58.01
2022-10-15T17:29:42.777Z,58.33
2022-10-15T17:34:46.188Z,58.48
2022-10-15T17:39:52.791Z,58.12
2022-10-15T17:44:56.167Z,58.44
2022-10-15T17:50:00.366Z,59.19
2022-10-15T17:55:05.655Z,58.33
2022-10-15T18:00:12.393Z,58.64
2022-10-15T18:10:27.324Z,59.03
2022-10-15T18:15:35.187Z,59.63
2022-10-15T18:20:43.210Z,59.90
2022-10-15T18:25:49.052Z,60.30
2022-10-15T18:30:53.204Z,59.50
2022-10-15T18:35:57.320Z,59.94
2022-10-15T18:41:02.768Z,59.94
2022-10-15T18:46:07.107Z,59.69
2022-10-15T18:51:11.254Z,60.44
2022-10-15T18:56:15.968Z,60.68
2022-10-15T19:01:27.477Z,60.20
2022-10-15T19:06:35.162Z,60.41
2022-10-15T19:11:41.899Z,60.36
2022-10-15T19:16:46.529Z,59.76
2022-10-15T19:21:51.586Z,59.54
2022-10-15T19:26:57.310Z,60.07
2022-10-15T19:32:04.495Z,59.97
2022-10-15T19:37:08.578Z,60.20
2022-10-15T19:42:13.340Z,60.20
2022-10-15T19:47:20.449Z,59.65
2022-10-15T19:52:23.988Z,60.25
2022-10-15T19:57:29.459Z,60.14
2022-10-15T20:02:34.396Z,60.29
2022-10-15T20:07:38.179Z,60.95
2022-10-15T20:12:42.912Z,60.80
2022-10-15T20:17:47.727Z,61.09
2022-10-15T20:22:51.037Z,60.05
2022-10-15T20:27:56.516Z,61.11
2022-10-15T20:33:00.217Z,60.66
2022-10-15T20:38:05.347Z,60.50
2022-10-15T20:43:10.166Z,60.50
2022-10-15T20:48:21.577Z,60.64
2022-10-15T20:53:26.085Z,60.70
2022-10-15T20:58:32.129Z,60.46
2022-10-15T21:03:35.561Z,60.38
2022-10-15T21:08:39.676Z,60.30
2022-10-15T21:13:44.695Z,60.96
2022-10-15T21:18:48.491Z,60.09
2022-10-15T21:23:52.069Z,60.25
2022-10-15T21:28:58.736Z,61.07
2022-10-15T21:34:02.134Z,60.51
2022-10-15T21:39:07.872Z,60.64
2022-10-15T21:44:12.707Z,60.97
2022-10-15T21:49:16.962Z,60.70
2022-10-15T21:54:20.289Z,60.88
2022-10-15T21:59:25.935Z,60.68
2022-10-15T22:04:29.435Z,60.76
2022-10-15T22:09:33.492Z,60.86
2022-10-15T22:14:38.286Z,61.14
2022-10-15T22:19:42.397Z,60.70
2022-10-15T22:24:45.717Z,60.95
2022-10-15T22:29:51.147Z,61.04
2022-10-15T22:34:54.504Z,61.28
2022-10-15T22:39:58.608Z,61.44
2022-10-15T22:45:03.469Z,62.54
2022-10-15T22:50:07.712Z,63.58
2022-10-15T22:55:11.210Z,62.15
2022-10-15T23:00:17.763Z,63.43
2022-10-15T23:05:21.868Z,63.10
2022-10-15T23:10:25.982Z,62.87
2022-10-15T23:15:31.395Z,63.47
2022-10-15T23:20:38.199Z,63.13
2022-10-15T23:25:42.228Z,63.69
2022-10-15T23:30:47.809Z,63.55
2022-10-15T23:35:59.605Z,63.60
2022-10-15T23:41:05.437Z,63.41
2022-10-15T23:46:11.222Z,63.39
2022-10-15T23:51:16.309Z,64.09
2022-10-15T23:56:19.925Z,63.57
